Time;durP1;ratioP1;P1;durP2;ratioP2;P2;SDS_P1;SDS_P2;PMS_P1;PMS_P2;Temp;Humidity;BMP_temperature;BMP_pressure;BME280_temperature;BME280_humidity;BME280_pressure;Samples;Min_cycle;Max_cycle;Signal;HPM_P1;HPM_P2
2023/04/14 00:02:09;;;;;;;0.70;0.70;;;11.30;85.50;;;;;;10872378;32;20050;-72
2023/04/14 00:08:11;;;;;;;1.40;0.62;;;11.20;85.30;;;;;;10871317;32;20046;-72
2023/04/14 00:14:27;;;;;;;0.50;0.50;;;11.10;85.20;;;;;;10871565;32;20432;-72
2023/04/14 00:20:56;;;;;;;0.57;0.57;;;11.10;85.50;;;;;;10872054;32;20296;-72
2023/04/14 00:27:01;;;;;;;0.67;0.67;;;11.10;85.00;;;;;;10871592;32;20028;-72
2023/04/14 00:33:03;;;;;;;0.90;0.90;;;11.00;85.10;;;;;;10856344;32;20028;-72
2023/04/14 00:39:05;;;;;;;0.70;0.70;;;11.10;85.20;;;;;;10870516;32;20028;-72
2023/04/14 00:45:07;;;;;;;0.90;0.90;;;11.10;85.00;;;;;;10870459;32;20023;-72
2023/04/14 00:51:09;;;;;;;0.80;0.80;;;10.80;84.60;;;;;;10869919;32;20049;-72
2023/04/14 00:57:11;;;;;;;1.33;1.10;;;10.60;84.60;;;;;;10870361;32;20024;-71
2023/04/14 01:03:57;;;;;;;1.62;1.50;;;10.50;84.70;;;;;;10869978;32;20008;-72
2023/04/14 01:09:59;;;;;;;1.52;1.40;;;10.50;84.50;;;;;;10855036;32;20035;-71
2023/04/14 01:16:19;;;;;;;1.83;1.73;;;10.20;84.10;;;;;;10866814;32;20031;-72
2023/04/14 01:22:25;;;;;;;1.35;1.25;;;10.20;84.20;;;;;;10854902;32;20062;-73
2023/04/14 01:28:39;;;;;;;1.42;1.23;;;10.10;84.10;;;;;;10868304;32;20015;-73
2023/04/14 01:34:59;;;;;;;1.80;1.20;;;10.10;84.00;;;;;;10855814;32;20011;-73
2023/04/14 01:41:08;;;;;;;1.23;1.10;;;10.10;84.20;;;;;;10869053;32;20041;-73
2023/04/14 01:47:14;;;;;;;0.82;0.82;;;10.10;84.10;;;;;;10868041;32;20023;-73
2023/04/14 01:53:18;;;;;;;0.60;0.60;;;10.40;84.50;;;;;;10866814;32;20047;-74
2023/04/14 01:59:21;;;;;;;1.17;0.73;;;10.70;84.20;;;;;;10867168;32;20024;-74
2023/04/14 02:05:25;;;;;;;1.25;0.90;;;10.70;84.00;;;;;;10866787;32;20024;-73
2023/04/14 02:11:29;;;;;;;0.50;0.50;;;10.60;84.00;;;;;;10867409;32;20012;-73
2023/04/14 02:17:33;;;;;;;0.70;0.70;;;10.60;84.30;;;;;;10867441;32;20046;-74
2023/04/14 02:23:35;;;;;;;0.28;0.28;;;10.40;84.30;;;;;;10861057;32;20024;-73
2023/04/14 02:29:41;;;;;;;0.50;0.50;;;10.40;84.40;;;;;;10868216;32;20019;-73
2023/04/14 02:36:05;;;;;;;1.30;1.20;;;10.50;84.60;;;;;;10848389;32;20031;-73
2023/04/14 02:42:14;;;;;;;0.50;0.50;;;10.60;84.80;;;;;;10852680;32;20032;-73
2023/04/14 02:48:20;;;;;;;0.80;0.80;;;10.80;84.90;;;;;;10866121;32;20034;-73
2023/04/14 02:54:23;;;;;;;1.30;1.20;;;10.90;84.60;;;;;;10866038;32;20020;-72
2023/04/14 03:00:26;;;;;;;1.05;0.62;;;10.90;84.80;;;;;;10868745;32;20035;-73
2023/04/14 03:06:30;;;;;;;0.60;0.60;;;10.80;84.90;;;;;;10874850;32;20050;-73
2023/04/14 03:12:34;;;;;;;0.85;0.85;;;11.00;85.20;;;;;;10874137;32;20028;-73
2023/04/14 03:18:37;;;;;;;1.50;1.00;;;10.70;84.40;;;;;;10873203;32;20019;-73
2023/04/14 03:24:40;;;;;;;1.40;1.20;;;10.40;84.40;;;;;;10872388;32;20050;-73
2023/04/14 03:30:48;;;;;;;2.47;1.73;;;10.10;84.40;;;;;;10873419;32;20046;-73
2023/04/14 03:36:53;;;;;;;1.37;1.12;;;9.90;84.20;;;;;;10873211;32;20046;-73
2023/04/14 03:42:59;;;;;;;2.28;1.62;;;9.70;84.30;;;;;;10872849;32;20306;-72
2023/04/14 03:49:06;;;;;;;1.62;1.35;;;9.70;84.20;;;;;;10859511;32;20019;-72
2023/04/14 03:55:11;;;;;;;1.17;0.75;;;9.70;84.40;;;;;;10871379;32;20019;-71
2023/04/14 04:01:14;;;;;;;1.08;0.95;;;9.80;84.70;;;;;;10872337;32;20023;-72
2023/04/14 04:07:18;;;;;;;1.37;0.85;;;10.00;84.50;;;;;;10869692;32;20023;-72
2023/04/14 04:13:21;;;;;;;1.00;0.88;;;10.10;84.60;;;;;;10871143;32;20046;-72
2023/04/14 04:19:25;;;;;;;1.10;0.90;;;10.20;84.40;;;;;;10870704;32;20414;-71
2023/04/14 04:25:27;;;;;;;0.95;0.65;;;10.00;84.30;;;;;;10869741;32;20031;-72
2023/04/14 04:31:34;;;;;;;1.10;0.85;;;10.00;84.50;;;;;;10869540;32;20046;-72
2023/04/14 04:37:38;;;;;;;0.95;0.57;;;10.20;84.80;;;;;;10864041;32;20038;-71
2023/04/14 04:43:40;;;;;;;0.90;0.90;;;10.20;84.60;;;;;;10871403;32;20058;-72
2023/04/14 04:49:42;;;;;;;0.88;0.88;;;10.50;84.80;;;;;;10869352;32;20323;-73
2023/04/14 04:55:44;;;;;;;1.37;0.93;;;10.60;84.60;;;;;;10855696;32;20062;-73
2023/04/14 05:01:47;;;;;;;7.05;5.18;;;10.70;84.50;;;;;;10869921;32;20024;-73
2023/04/14 05:07:49;;;;;;;4.05;2.50;;;10.70;84.50;;;;;;10869439;32;20431;-72
2023/04/14 05:13:51;;;;;;;5.62;3.25;;;10.80;84.50;;;;;;10856624;32;20020;-72
2023/04/14 05:19:54;;;;;;;3.35;2.45;;;10.80;84.50;;;;;;10869702;32;20015;-72
2023/04/14 05:25:56;;;;;;;3.55;2.67;;;10.70;84.60;;;;;;10868622;32;20192;-72
2023/04/14 05:31:58;;;;;;;2.58;2.22;;;10.70;84.70;;;;;;10869195;32;20012;-72
2023/04/14 05:38:00;;;;;;;1.77;1.20;;;10.60;84.90;;;;;;10867817;32;20379;-72
2023/04/14 05:44:03;;;;;;;1.60;1.50;;;10.60;84.90;;;;;;10854360;32;20054;-73
2023/04/14 05:50:06;;;;;;;1.58;1.48;;;10.50;84.90;;;;;;10868525;32;20031;-72
2023/04/14 05:56:10;;;;;;;2.50;1.90;;;10.50;85.10;;;;;;10868647;32;20015;-72
2023/04/14 06:02:12;;;;;;;2.35;1.62;;;10.70;85.10;;;;;;10864424;32;20047;-72
2023/04/14 06:08:14;;;;;;;1.58;1.27;;;10.90;85.00;;;;;;10871509;32;20059;-72
2023/04/14 06:14:17;;;;;;;0.75;0.70;;;11.20;84.90;;;;;;10866285;32;20019;-72
2023/04/14 06:20:20;;;;;;;1.02;0.90;;;11.10;84.80;;;;;;10866486;32;20058;-72
2023/04/14 06:26:22;;;;;;;1.92;1.83;;;10.80;85.00;;;;;;10853018;32;20043;-72
2023/04/14 06:32:25;;;;;;;1.95;1.75;;;10.80;85.20;;;;;;10867485;32;20462;-72
2023/04/14 06:38:27;;;;;;;1.90;1.45;;;10.80;85.20;;;;;;10871221;32;20034;-72
2023/04/14 06:44:29;;;;;;;3.20;1.98;;;10.80;85.40;;;;;;10874173;32;20385;-72
2023/04/14 06:50:31;;;;;;;2.50;2.17;;;11.10;85.50;;;;;;10874341;32;20315;-72
2023/04/14 06:56:34;;;;;;;3.53;1.85;;;11.20;85.30;;;;;;10862607;32;20032;-72
2023/04/14 07:02:36;;;;;;;3.95;1.92;;;11.30;85.20;;;;;;10835545;32;20031;-72
2023/04/14 07:08:39;;;;;;;4.90;2.47;;;11.10;85.10;;;;;;10845291;32;20337;-72
2023/04/14 07:14:41;;;;;;;3.30;1.55;;;10.80;85.20;;;;;;10873309;32;20015;-71
2023/04/14 07:20:43;;;;;;;2.28;1.55;;;10.90;85.50;;;;;;10873257;32;20039;-72
2023/04/14 07:26:45;;;;;;;6.05;1.98;;;10.90;85.40;;;;;;10859189;32;20094;-72
2023/04/14 07:32:47;;;;;;;1.60;1.48;;;10.80;85.40;;;;;;10872189;32;20015;-72
2023/04/14 07:38:50;;;;;;;2.42;2.03;;;10.80;85.40;;;;;;10873091;32;20394;-72
2023/04/14 07:44:52;;;;;;;2.78;1.85;;;10.70;85.40;;;;;;10872889;32;20020;-72
2023/04/14 07:50:56;;;;;;;2.37;1.73;;;10.60;85.20;;;;;;10683322;27;7149555;-72
2023/04/14 07:56:59;;;;;;;2.33;1.62;;;10.60;85.20;;;;;;10984904;32;20344;-72
2023/04/14 08:03:01;;;;;;;4.68;2.78;;;10.60;85.30;;;;;;10972054;32;20301;-72
2023/04/14 08:09:04;;;;;;;2.15;1.83;;;10.70;85.20;;;;;;10984118;32;20019;-72
2023/04/14 08:15:07;;;;;;;4.62;1.90;;;10.70;84.80;;;;;;10984718;32;20053;-72
2023/04/14 08:21:09;;;;;;;2.58;2.05;;;10.70;84.80;;;;;;10983729;32;20023;-72
2023/04/14 08:27:11;;;;;;;4.07;2.45;;;10.70;84.80;;;;;;10968990;32;20030;-72
2023/04/14 08:33:13;;;;;;;3.45;2.67;;;10.70;84.50;;;;;;10983153;32;20042;-72
2023/04/14 08:39:15;;;;;;;1.70;1.60;;;10.80;84.20;;;;;;10979448;32;20019;-72
2023/04/14 08:45:18;;;;;;;5.80;2.42;;;10.80;84.20;;;;;;10983394;32;20018;-72
2023/04/14 08:51:31;;;;;;;3.53;2.08;;;11.00;84.30;;;;;;10981906;32;20037;-72
2023/04/14 08:57:33;;;;;;;2.95;1.95;;;11.00;83.90;;;;;;10976370;32;20046;-72
2023/04/14 09:03:36;;;;;;;3.42;2.55;;;11.10;83.60;;;;;;10981541;32;20018;-72
2023/04/14 09:09:38;;;;;;;1.98;1.58;;;11.20;83.00;;;;;;10972937;32;20045;-71
2023/04/14 09:15:42;;;;;;;2.78;1.40;;;11.20;83.20;;;;;;10942180;32;20084;-72
2023/04/14 09:21:45;;;;;;;3.62;2.30;;;11.30;83.00;;;;;;10944601;32;20018;-71
2023/04/14 09:27:48;;;;;;;1.95;1.40;;;11.40;82.40;;;;;;10943025;32;20041;-72
2023/04/14 09:33:52;;;;;;;2.53;1.98;;;11.40;81.30;;;;;;10939777;32;20046;-72
2023/04/14 09:39:54;;;;;;;1.77;1.52;;;11.50;80.80;;;;;;10940000;32;20023;-72
2023/04/14 09:46:07;;;;;;;3.35;1.98;;;11.80;80.80;;;;;;10942248;32;20011;-72
2023/04/14 09:52:10;;;;;;;1.98;1.45;;;11.90;79.50;;;;;;10929277;32;20018;-72
2023/04/14 09:58:12;;;;;;;2.05;1.37;;;12.10;79.60;;;;;;10942615;32;20049;-72
2023/04/14 10:04:25;;;;;;;2.75;1.65;;;12.20;80.40;;;;;;10928237;32;20207;-72
2023/04/14 10:10:28;;;;;;;1.15;1.12;;;12.30;79.60;;;;;;10941218;32;20423;-72
2023/04/14 10:16:31;;;;;;;2.30;1.30;;;12.50;79.00;;;;;;10941932;32;20034;-72
2023/04/14 10:22:35;;;;;;;1.58;1.05;;;12.60;79.20;;;;;;10941877;32;20045;-71
2023/04/14 10:28:43;;;;;;;1.30;1.20;;;12.60;79.30;;;;;;10941780;32;20286;-72
2023/04/14 10:35:07;;;;;;;1.37;1.20;;;12.80;78.90;;;;;;10942457;32;20042;-72
2023/04/14 10:41:10;;;;;;;1.77;1.33;;;13.00;76.30;;;;;;10926936;32;20030;-72
2023/04/14 10:47:23;;;;;;;3.67;2.05;;;13.20;76.10;;;;;;10926993;32;20113;-71
2023/04/14 10:53:26;;;;;;;1.27;1.17;;;13.30;75.90;;;;;;10940915;32;20452;-71
2023/04/14 10:59:28;;;;;;;1.30;1.20;;;13.40;76.30;;;;;;10927983;32;20397;-71
2023/04/14 11:05:34;;;;;;;1.20;1.10;;;13.60;76.60;;;;;;10942217;32;20049;-72
2023/04/14 11:11:36;;;;;;;2.67;1.62;;;13.70;76.50;;;;;;10971382;32;20057;-71
2023/04/14 11:17:41;;;;;;;1.17;1.10;;;13.70;76.00;;;;;;10978513;32;20042;-71
2023/04/14 11:23:43;;;;;;;1.35;1.23;;;13.70;76.10;;;;;;10964032;32;20329;-71
2023/04/14 11:29:47;;;;;;;2.55;1.80;;;13.90;75.30;;;;;;10986041;32;20407;-72
2023/04/14 11:35:50;;;;;;;9.07;4.60;;;14.20;76.10;;;;;;10969334;32;20057;-73
2023/04/14 11:41:52;;;;;;;1.67;1.58;;;14.40;73.60;;;;;;10985215;32;20352;-71
2023/04/14 11:47:57;;;;;;;1.98;1.50;;;14.60;74.10;;;;;;10972416;32;20054;-72
2023/04/14 11:54:15;;;;;;;1.75;1.35;;;14.70;73.50;;;;;;10984152;32;20022;-71
2023/04/14 12:00:17;;;;;;;1.05;1.00;;;14.90;73.60;;;;;;10957167;32;20022;-72
2023/04/14 12:06:22;;;;;;;2.53;1.83;;;14.80;74.00;;;;;;10983406;32;20034;-72
2023/04/14 12:12:26;;;;;;;2.28;1.70;;;14.70;72.50;;;;;;10984982;32;20014;-72
2023/04/14 12:18:28;;;;;;;2.05;1.55;;;14.40;72.70;;;;;;10981471;32;20345;-72
2023/04/14 12:24:38;;;;;;;2.35;1.65;;;14.50;73.80;;;;;;10982845;32;20049;-72
2023/04/14 12:30:51;;;;;;;4.05;2.50;;;14.80;72.90;;;;;;10980247;32;20045;-73
2023/04/14 12:36:53;;;;;;;2.70;2.50;;;15.30;70.10;;;;;;10982719;32;20022;-73
2023/04/14 12:42:55;;;;;;;2.50;1.67;;;15.70;71.80;;;;;;10983276;32;20053;-73
2023/04/14 12:48:58;;;;;;;2.55;2.05;;;15.80;70.30;;;;;;10982545;32;20015;-73
2023/04/14 12:55:01;;;;;;;4.18;2.97;;;15.80;71.30;;;;;;10968045;32;20069;-73
2023/04/14 13:01:08;;;;;;;2.20;1.85;;;16.10;71.10;;;;;;10982787;32;20327;-72
2023/04/14 13:07:10;;;;;;;3.70;1.87;;;16.30;69.50;;;;;;10982402;32;20022;-74
2023/04/14 13:13:12;;;;;;;1.75;1.50;;;16.40;70.10;;;;;;10982360;32;20026;-74
2023/04/14 13:19:15;;;;;;;3.37;2.47;;;16.30;69.00;;;;;;10981565;32;20018;-75
2023/04/14 13:25:17;;;;;;;3.85;2.58;;;16.20;69.50;;;;;;10967904;32;20052;-73
2023/04/14 13:31:19;;;;;;;3.47;2.58;;;16.10;67.90;;;;;;10981160;32;20388;-74
2023/04/14 13:37:21;;;;;;;2.35;1.65;;;16.30;69.50;;;;;;10981289;32;20041;-74
2023/04/14 13:43:24;;;;;;;2.03;1.60;;;16.60;68.90;;;;;;10967919;32;20022;-73
2023/04/14 13:49:26;;;;;;;3.80;2.22;;;16.80;68.50;;;;;;10980906;32;20049;-73
2023/04/14 13:55:28;;;;;;;3.53;2.15;;;16.80;67.10;;;;;;10970524;32;20340;-74
2023/04/14 14:01:30;;;;;;;2.92;1.90;;;16.90;67.20;;;;;;10976124;32;20045;-74
2023/04/14 14:07:32;;;;;;;1.62;1.33;;;17.30;67.00;;;;;;10980498;32;20056;-74
2023/04/14 14:13:37;;;;;;;1.40;1.30;;;17.30;67.30;;;;;;10980477;32;20380;-74
2023/04/14 14:19:39;;;;;;;1.55;1.27;;;17.40;67.20;;;;;;10965079;32;20034;-73
2023/04/14 14:25:42;;;;;;;1.67;1.20;;;17.80;67.20;;;;;;10965508;32;20022;-73
2023/04/14 14:31:44;;;;;;;3.65;2.30;;;17.90;68.30;;;;;;10978693;32;20052;-73
2023/04/14 14:37:47;;;;;;;3.83;2.30;;;18.10;69.00;;;;;;10979301;32;20076;-73
2023/04/14 14:43:50;;;;;;;1.52;1.12;;;18.30;67.40;;;;;;10975894;32;20309;-73
2023/04/14 14:49:52;;;;;;;3.22;1.62;;;18.30;67.70;;;;;;10979375;32;20046;-73
2023/04/14 14:55:54;;;;;;;2.53;1.45;;;18.60;67.50;;;;;;10965090;32;20035;-73
2023/04/14 15:01:56;;;;;;;1.90;1.35;;;18.80;66.30;;;;;;10969567;32;20050;-73
2023/04/14 15:07:58;;;;;;;1.50;1.10;;;18.60;65.90;;;;;;10986414;32;20031;-73
2023/04/14 15:14:00;;;;;;;2.00;1.40;;;18.20;66.80;;;;;;10972667;32;20041;-73
2023/04/14 15:20:03;;;;;;;1.23;0.93;;;18.00;67.40;;;;;;10971477;32;20065;-73
2023/04/14 15:26:06;;;;;;;1.27;1.08;;;17.80;68.50;;;;;;10982754;32;20034;-73
2023/04/14 15:32:08;;;;;;;2.03;1.42;;;17.60;69.00;;;;;;10984716;32;20144;-73
2023/04/14 15:38:10;;;;;;;1.62;1.10;;;17.50;69.50;;;;;;10955233;32;20034;-73
2023/04/14 15:44:12;;;;;;;5.62;1.40;;;17.30;69.60;;;;;;10970596;32;20035;-72
2023/04/14 15:50:15;;;;;;;0.98;0.80;;;17.20;70.10;;;;;;10988975;27;20018;-73
2023/04/14 15:56:21;;;;;;;1.02;0.90;;;17.10;70.70;;;;;;10972276;32;20377;-73
2023/04/14 16:02:24;;;;;;;1.35;1.10;;;17.20;71.00;;;;;;10969625;32;20049;-73
2023/04/14 16:08:26;;;;;;;1.20;0.90;;;17.30;70.70;;;;;;10983090;32;20018;-73
2023/04/14 16:14:32;;;;;;;4.22;1.37;;;17.30;71.00;;;;;;10984561;32;20014;-73
2023/04/14 16:20:34;;;;;;;2.80;1.58;;;17.30;70.80;;;;;;10970282;32;20011;-73
2023/04/14 16:26:37;;;;;;;1.40;1.27;;;17.30;70.90;;;;;;10981027;32;20065;-73
2023/04/14 16:33:36;;;;;;;1.87;0.98;;;17.10;70.80;;;;;;10983279;32;20025;-73
2023/04/14 16:39:40;;;;;;;1.02;0.93;;;16.80;71.80;;;;;;10978152;32;20100;-73
2023/04/14 16:45:42;;;;;;;1.92;1.48;;;16.60;72.40;;;;;;10982736;32;20018;-73
2023/04/14 16:51:44;;;;;;;1.95;1.40;;;16.40;72.60;;;;;;10968040;32;20031;-73
2023/04/14 16:57:47;;;;;;;2.83;1.50;;;16.30;72.90;;;;;;10967627;32;20058;-73
2023/04/14 17:03:49;;;;;;;3.60;1.77;;;16.20;73.70;;;;;;10980978;32;20041;-73
2023/04/14 17:09:53;;;;;;;1.35;1.25;;;16.20;74.20;;;;;;10982427;32;20015;-73
2023/04/14 17:15:55;;;;;;;2.75;1.52;;;16.30;74.20;;;;;;10981848;32;20026;-73
2023/04/14 17:21:58;;;;;;;3.33;1.17;;;16.20;74.30;;;;;;10967238;32;20068;-73
2023/04/14 17:28:01;;;;;;;1.33;1.20;;;16.10;74.70;;;;;;10967882;32;20027;-73
2023/04/14 17:34:09;;;;;;;1.62;1.42;;;16.10;75.80;;;;;;10977634;32;20011;-73
2023/04/14 17:40:12;;;;;;;2.10;1.63;;;16.00;75.90;;;;;;10977776;32;20089;-73
2023/04/14 17:46:16;;;;;;;2.33;1.60;;;16.00;76.30;;;;;;10979870;32;20061;-73
2023/04/14 17:52:20;;;;;;;2.90;1.92;;;16.10;76.40;;;;;;10979965;32;20041;-73
2023/04/14 17:58:25;;;;;;;2.65;2.22;;;16.10;76.80;;;;;;10967498;32;20317;-73
2023/04/14 18:04:28;;;;;;;2.80;2.33;;;15.90;76.10;;;;;;10980368;32;20360;-73
2023/04/14 18:10:30;;;;;;;11.90;3.28;;;15.90;76.90;;;;;;10979764;32;20360;-73
2023/04/14 18:16:32;;;;;;;3.30;2.00;;;16.00;77.10;;;;;;10979092;32;20037;-73
2023/04/14 18:22:35;;;;;;;3.33;2.30;;;15.80;77.40;;;;;;10976726;32;20018;-72
2023/04/14 18:28:42;;;;;;;5.37;2.60;;;15.70;77.50;;;;;;10962833;32;20039;-72
2023/04/14 18:34:51;;;;;;;40.92;9.15;;;15.60;77.80;;;;;;10979176;32;20023;-72
2023/04/14 18:41:02;;;;;;;5.70;3.45;;;15.40;76.60;;;;;;10977491;32;20027;-71
2023/04/14 18:47:04;;;;;;;2.53;2.17;;;15.30;76.80;;;;;;10939406;32;20065;-71
2023/04/14 18:53:10;;;;;;;23.45;3.83;;;15.30;77.40;;;;;;10978541;32;20049;-72
2023/04/14 18:59:13;;;;;;;2.12;1.60;;;15.20;77.40;;;;;;10966679;32;20053;-72
2023/04/14 19:05:15;;;;;;;3.03;1.50;;;15.20;77.60;;;;;;10979312;32;20045;-71
2023/04/14 19:11:20;;;;;;;2.25;1.73;;;15.20;77.80;;;;;;10978578;32;20026;-71
2023/04/14 19:17:22;;;;;;;2.25;1.52;;;15.20;78.20;;;;;;10978347;32;20019;-71
2023/04/14 19:23:25;;;;;;;2.37;1.67;;;15.20;78.10;;;;;;10963261;32;20034;-71
2023/04/14 19:29:27;;;;;;;1.77;1.25;;;15.10;78.40;;;;;;10978314;32;20022;-71
2023/04/14 19:35:30;;;;;;;1.40;1.30;;;15.10;78.60;;;;;;10974849;32;20026;-71
2023/04/14 19:41:32;;;;;;;2.33;1.70;;;15.20;78.80;;;;;;10963113;32;20018;-72
2023/04/14 19:47:35;;;;;;;1.48;1.37;;;15.20;78.90;;;;;;10982989;32;20101;-72
2023/04/14 19:53:37;;;;;;;2.28;1.48;;;15.20;79.00;;;;;;10968392;32;20077;-73
2023/04/14 19:59:39;;;;;;;2.75;1.67;;;15.10;79.10;;;;;;10983444;32;20026;-73
2023/04/14 20:05:42;;;;;;;2.45;2.15;;;15.10;79.10;;;;;;10980900;32;20034;-73
2023/04/14 20:11:45;;;;;;;2.00;1.73;;;15.10;79.20;;;;;;10969601;32;20038;-73
2023/04/14 20:17:47;;;;;;;3.50;2.70;;;15.10;79.30;;;;;;10982300;32;20080;-73
2023/04/14 20:23:50;;;;;;;3.47;2.60;;;15.00;79.50;;;;;;10984015;32;20358;-74
2023/04/14 20:29:52;;;;;;;3.33;2.15;;;14.80;80.50;;;;;;10984011;32;20419;-74
2023/04/14 20:35:54;;;;;;;2.85;2.05;;;14.80;81.10;;;;;;10983296;32;20023;-73
2023/04/14 20:41:56;;;;;;;2.40;1.87;;;14.70;80.80;;;;;;10982364;32;20027;-73
2023/04/14 20:47:59;;;;;;;4.40;3.65;;;14.70;80.50;;;;;;10983334;32;20027;-74
2023/04/14 20:54:02;;;;;;;5.55;3.62;;;14.50;80.60;;;;;;10981832;32;20022;-74
2023/04/14 21:00:09;;;;;;;4.35;3.22;;;14.30;80.50;;;;;;10968236;32;20412;-74
2023/04/14 21:06:11;;;;;;;7.60;4.45;;;14.30;80.50;;;;;;10983347;32;20306;-74
2023/04/14 21:12:13;;;;;;;3.42;2.47;;;14.40;80.70;;;;;;10981931;32;20049;-73
2023/04/14 21:18:15;;;;;;;4.72;3.08;;;14.40;80.40;;;;;;10982208;32;20019;-74
2023/04/14 21:24:17;;;;;;;4.78;3.03;;;14.20;80.40;;;;;;10954722;32;20034;-73
2023/04/14 21:30:20;;;;;;;6.93;3.03;;;14.10;80.40;;;;;;10981932;32;20085;-74
2023/04/14 21:36:23;;;;;;;3.72;2.60;;;14.10;80.40;;;;;;10980999;32;20045;-74
2023/04/14 21:42:25;;;;;;;3.78;2.65;;;14.10;80.30;;;;;;10981339;32;20348;-74
2023/04/14 21:48:27;;;;;;;4.03;2.80;;;14.00;80.50;;;;;;10980557;32;20399;-74
2023/04/14 21:54:30;;;;;;;6.30;4.28;;;14.10;80.80;;;;;;10965691;32;20049;-74
2023/04/14 22:00:32;;;;;;;5.28;3.97;;;14.20;80.50;;;;;;10980889;32;20097;-74
2023/04/14 22:06:35;;;;;;;4.78;3.03;;;14.20;80.00;;;;;;10980632;32;20392;-73
2023/04/14 22:12:38;;;;;;;4.97;2.80;;;14.10;79.80;;;;;;10980021;32;20046;-73
2023/04/14 22:18:40;;;;;;;5.47;3.33;;;14.10;79.90;;;;;;10965261;32;20034;-74
2023/04/14 22:24:43;;;;;;;4.82;3.58;;;14.10;79.80;;;;;;10978026;32;20320;-74
2023/04/14 22:30:46;;;;;;;8.35;3.45;;;14.00;79.70;;;;;;10979419;32;20022;-74
2023/04/14 22:36:48;;;;;;;6.03;4.72;;;13.90;79.60;;;;;;10979438;32;20088;-74
2023/04/14 22:42:50;;;;;;;7.97;5.20;;;13.90;79.50;;;;;;10979012;32;20027;-74
2023/04/14 22:48:55;;;;;;;5.62;3.97;;;13.80;79.30;;;;;;10979723;32;20049;-74
2023/04/14 22:54:57;;;;;;;5.37;3.95;;;13.70;79.40;;;;;;10978485;32;20044;-73
2023/04/14 23:00:59;;;;;;;5.55;4.25;;;13.60;79.40;;;;;;10964639;32;20027;-74
2023/04/14 23:07:01;;;;;;;6.97;4.10;;;13.50;79.40;;;;;;10979391;32;20447;-74
2023/04/14 23:13:03;;;;;;;5.35;3.40;;;13.50;78.90;;;;;;10978766;32;20356;-74
2023/04/14 23:19:05;;;;;;;5.95;4.53;;;13.60;78.80;;;;;;10982495;32;20041;-74
2023/04/14 23:25:08;;;;;;;5.15;4.12;;;13.60;78.80;;;;;;10986994;32;20337;-74
2023/04/14 23:31:10;;;;;;;4.72;4.03;;;13.60;78.80;;;;;;10981599;32;20041;-74
2023/04/14 23:37:12;;;;;;;5.75;3.78;;;13.60;78.90;;;;;;10985935;32;20045;-74
2023/04/14 23:43:15;;;;;;;7.90;4.87;;;13.50;79.50;;;;;;10984516;32;20014;-73
2023/04/14 23:49:17;;;;;;;5.30;3.33;;;13.50;79.30;;;;;;10985553;32;20019;-74
2023/04/14 23:55:20;;;;;;;4.75;3.67;;;13.50;80.10;;;;;;10970551;27;20039;-75
